Time;durP1;ratioP1;P1;durP2;ratioP2;P2;SDS_P1;SDS_P2;PMS_P1;PMS_P2;Temp;Humidity;BMP_temperature;BMP_pressure;BME280_temperature;BME280_humidity;BME280_pressure;Samples;Min_cycle;Max_cycle;Signal;HPM_P1;HPM_P2
2023/07/16 00:00:47;;;;;;;3.45;1.60;;;19.70;85.40;;;;;;5057769;28;20029;-68
2023/07/16 00:03:14;;;;;;;3.35;1.50;;;19.70;85.20;;;;;;5049816;28;20044;-68
2023/07/16 00:05:39;;;;;;;3.25;1.70;;;19.60;84.70;;;;;;5056928;28;20013;-69
2023/07/16 00:08:05;;;;;;;2.60;1.63;;;19.60;84.40;;;;;;5064821;28;20036;-68
2023/07/16 00:10:36;;;;;;;4.20;1.63;;;19.60;84.00;;;;;;5050083;28;20096;-68
2023/07/16 00:13:05;;;;;;;3.45;2.00;;;19.50;83.80;;;;;;5050101;28;20025;-68
2023/07/16 00:15:31;;;;;;;2.92;1.88;;;19.50;83.40;;;;;;5050159;28;20028;-68
2023/07/16 00:17:57;;;;;;;3.38;1.83;;;19.40;83.00;;;;;;5049701;28;20060;-68
2023/07/16 00:20:23;;;;;;;4.35;2.15;;;19.40;82.50;;;;;;5054662;28;20028;-69
2023/07/16 00:22:50;;;;;;;3.85;1.65;;;19.40;81.70;;;;;;5050005;28;20021;-69
2023/07/16 00:25:15;;;;;;;5.65;1.85;;;19.30;81.70;;;;;;5053280;28;20016;-69
2023/07/16 00:27:41;;;;;;;4.78;1.83;;;19.40;81.70;;;;;;5052605;28;20035;-69
2023/07/16 00:30:08;;;;;;;3.63;1.70;;;19.40;81.60;;;;;;5051146;28;20025;-68
2023/07/16 00:32:33;;;;;;;5.65;1.52;;;19.40;81.70;;;;;;5058945;28;20036;-68
2023/07/16 00:34:59;;;;;;;3.63;1.77;;;19.40;81.70;;;;;;5049534;28;20024;-68
2023/07/16 00:37:25;;;;;;;3.72;1.92;;;19.40;81.50;;;;;;5063180;28;20029;-69
2023/07/16 00:39:51;;;;;;;3.28;1.95;;;19.40;81.60;;;;;;5055583;28;20473;-68
2023/07/16 00:42:16;;;;;;;4.38;2.10;;;19.30;81.70;;;;;;5049609;28;20033;-68
2023/07/16 00:44:42;;;;;;;3.78;2.13;;;19.30;82.00;;;;;;5037673;28;20025;-68
2023/07/16 00:47:09;;;;;;;5.57;2.53;;;19.30;82.40;;;;;;5049663;28;20044;-68
2023/07/16 00:49:35;;;;;;;5.88;2.30;;;19.20;82.70;;;;;;5049390;28;20100;-68
2023/07/16 00:52:01;;;;;;;4.35;2.20;;;19.10;83.20;;;;;;5048748;28;20124;-68
2023/07/16 00:54:29;;;;;;;3.75;1.80;;;19.10;83.70;;;;;;5048875;28;20039;-68
2023/07/16 00:56:55;;;;;;;4.93;2.53;;;19.10;83.90;;;;;;5032231;28;20502;-68
2023/07/16 00:59:21;;;;;;;6.07;2.80;;;19.10;84.40;;;;;;5049648;28;20135;-68
2023/07/16 01:01:47;;;;;;;5.38;2.40;;;19.00;84.90;;;;;;5056531;28;20060;-68
2023/07/16 01:04:12;;;;;;;5.75;2.60;;;19.00;84.90;;;;;;5049163;28;20484;-68
2023/07/16 01:06:45;;;;;;;4.90;2.03;;;19.00;84.90;;;;;;5031139;28;20029;-68
2023/07/16 01:09:17;;;;;;;5.72;2.50;;;19.10;84.90;;;;;;5048762;28;20052;-68
2023/07/16 01:11:44;;;;;;;5.85;2.40;;;19.00;84.60;;;;;;5058754;28;20502;-68
2023/07/16 01:14:12;;;;;;;5.13;2.30;;;19.00;84.20;;;;;;5067451;28;20029;-69
2023/07/16 01:16:37;;;;;;;5.47;2.20;;;19.00;83.90;;;;;;5052845;28;20110;-68
2023/07/16 01:19:04;;;;;;;5.13;2.22;;;19.00;83.60;;;;;;5052961;28;20495;-68
2023/07/16 01:22:06;;;;;;;5.88;2.33;;;19.00;83.20;;;;;;5054549;28;20033;-67
2023/07/16 01:24:47;;;;;;;5.00;2.55;;;19.00;82.60;;;;;;5034735;28;20116;-68
2023/07/16 01:27:12;;;;;;;7.07;2.60;;;19.00;82.20;;;;;;5053227;28;20476;-68
2023/07/16 01:29:42;;;;;;;5.60;2.80;;;19.00;81.70;;;;;;5051673;28;20025;-68
2023/07/16 01:32:10;;;;;;;4.93;2.60;;;19.00;81.30;;;;;;5052394;28;20035;-68
2023/07/16 01:34:37;;;;;;;5.78;2.45;;;18.90;80.60;;;;;;5051770;28;20541;-67
2023/07/16 01:37:03;;;;;;;7.28;2.92;;;18.90;80.60;;;;;;5052337;28;20028;-68
2023/07/16 01:39:30;;;;;;;6.05;2.45;;;18.80;80.30;;;;;;5052241;28;20161;-68
2023/07/16 01:41:56;;;;;;;5.22;2.28;;;18.70;80.30;;;;;;5057208;28;20538;-68
2023/07/16 01:44:21;;;;;;;7.72;2.70;;;18.70;80.40;;;;;;5052620;28;20029;-67
2023/07/16 01:47:03;;;;;;;5.57;2.30;;;18.70;80.20;;;;;;5059449;28;20025;-67
2023/07/16 01:49:29;;;;;;;5.07;2.15;;;18.60;79.90;;;;;;5056854;28;20356;-67
2023/07/16 01:51:54;;;;;;;5.40;2.50;;;18.60;79.90;;;;;;5059042;28;20082;-67
2023/07/16 01:54:20;;;;;;;5.85;2.30;;;18.60;79.60;;;;;;5054767;28;20028;-67
2023/07/16 01:56:45;;;;;;;6.13;2.40;;;18.60;79.50;;;;;;5053722;28;20029;-67
2023/07/16 01:59:11;;;;;;;6.95;2.38;;;18.50;79.30;;;;;;5053663;28;20033;-68
2023/07/16 02:01:37;;;;;;;5.88;2.33;;;18.60;79.30;;;;;;5052883;28;20166;-67
2023/07/16 02:04:02;;;;;;;5.35;2.20;;;18.60;79.10;;;;;;5052220;28;20040;-67
2023/07/16 02:06:28;;;;;;;6.25;2.50;;;18.50;78.80;;;;;;5062724;28;20511;-67
2023/07/16 02:08:53;;;;;;;4.63;2.20;;;18.50;78.80;;;;;;5060736;28;20099;-68
2023/07/16 02:11:19;;;;;;;4.55;2.60;;;18.50;78.80;;;;;;5052127;28;20033;-68
2023/07/16 02:13:44;;;;;;;4.53;2.28;;;18.40;78.70;;;;;;5053630;28;20093;-68
2023/07/16 02:16:10;;;;;;;6.63;2.53;;;18.30;79.30;;;;;;5052253;28;20029;-68
2023/07/16 02:18:36;;;;;;;3.30;2.15;;;18.40;78.80;;;;;;5057344;28;20065;-68
2023/07/16 02:21:02;;;;;;;3.72;1.88;;;18.30;78.70;;;;;;5057859;28;20491;-68
2023/07/16 02:23:27;;;;;;;8.65;2.58;;;18.30;78.90;;;;;;5052061;28;20083;-68
2023/07/16 02:25:53;;;;;;;6.55;2.55;;;18.30;79.00;;;;;;5058405;28;20492;-67
2023/07/16 02:28:19;;;;;;;8.35;3.30;;;18.30;79.00;;;;;;5051461;28;20029;-67
2023/07/16 02:30:44;;;;;;;4.68;2.40;;;18.20;79.00;;;;;;5052062;28;20083;-67
2023/07/16 02:33:10;;;;;;;6.50;2.53;;;18.20;79.10;;;;;;5033799;28;20488;-68
2023/07/16 02:35:35;;;;;;;4.47;2.30;;;18.20;79.10;;;;;;5051471;28;20072;-68
2023/07/16 02:38:01;;;;;;;6.43;2.75;;;18.20;79.10;;;;;;5049102;28;20029;-68
2023/07/16 02:40:27;;;;;;;6.18;2.65;;;18.10;79.10;;;;;;5049880;28;20087;-68
2023/07/16 02:42:52;;;;;;;6.03;2.30;;;18.10;79.30;;;;;;5050804;28;20034;-68
2023/07/16 02:45:18;;;;;;;5.53;2.25;;;18.10;79.40;;;;;;5055510;28;20033;-68
2023/07/16 02:47:43;;;;;;;6.55;2.80;;;18.10;79.30;;;;;;5054565;28;20032;-68
2023/07/16 02:50:09;;;;;;;4.05;1.95;;;18.00;79.20;;;;;;5049977;28;20103;-68
2023/07/16 02:52:35;;;;;;;6.07;2.30;;;18.00;79.30;;;;;;5035170;28;20368;-68
2023/07/16 02:55:01;;;;;;;8.05;2.70;;;18.00;79.40;;;;;;5050624;28;20545;-68
2023/07/16 02:57:26;;;;;;;8.32;2.70;;;18.00;79.60;;;;;;5051167;28;20052;-68
2023/07/16 02:59:52;;;;;;;4.35;2.10;;;17.90;79.60;;;;;;5056891;28;20032;-67
2023/07/16 03:02:17;;;;;;;5.38;2.08;;;17.90;79.80;;;;;;5051013;28;20047;-67
2023/07/16 03:04:43;;;;;;;8.13;2.10;;;17.90;79.90;;;;;;5055626;28;20016;-68
2023/07/16 03:07:08;;;;;;;5.57;2.30;;;17.90;80.10;;;;;;5049766;28;20021;-67
2023/07/16 03:09:34;;;;;;;10.43;3.05;;;17.90;80.30;;;;;;5057235;28;20538;-67
2023/07/16 03:11:59;;;;;;;8.13;2.50;;;17.90;80.60;;;;;;5051170;28;20553;-67
2023/07/16 03:14:25;;;;;;;6.68;2.63;;;17.80;80.90;;;;;;5052098;28;20037;-67
2023/07/16 03:16:50;;;;;;;3.85;2.33;;;17.80;81.40;;;;;;5053464;28;20044;-67
2023/07/16 03:19:16;;;;;;;4.90;2.20;;;17.80;81.70;;;;;;5051061;28;20106;-67
2023/07/16 03:21:41;;;;;;;4.28;2.30;;;17.80;81.80;;;;;;5051710;28;20508;-66
2023/07/16 03:24:07;;;;;;;5.78;2.20;;;17.80;82.30;;;;;;5050515;28;20061;-67
2023/07/16 03:26:32;;;;;;;7.50;2.80;;;17.80;82.60;;;;;;5057903;28;20025;-67
2023/07/16 03:28:58;;;;;;;7.68;2.75;;;17.80;83.20;;;;;;5048421;28;20033;-67
2023/07/16 03:31:24;;;;;;;4.85;2.40;;;17.80;83.70;;;;;;5045075;28;20035;-67
2023/07/16 03:33:49;;;;;;;4.82;2.70;;;17.80;83.80;;;;;;5061243;28;20119;-67
2023/07/16 03:36:15;;;;;;;6.65;2.85;;;17.80;83.90;;;;;;5057126;28;20595;-67
2023/07/16 03:38:40;;;;;;;8.32;2.67;;;17.80;83.90;;;;;;5042206;28;20049;-67
2023/07/16 03:41:06;;;;;;;5.25;2.25;;;17.80;83.70;;;;;;5046890;28;20056;-67
2023/07/16 03:43:31;;;;;;;6.75;3.35;;;17.90;83.60;;;;;;5060369;28;20021;-68
2023/07/16 03:45:57;;;;;;;7.55;2.70;;;17.80;83.30;;;;;;5049013;28;20534;-67
2023/07/16 03:48:22;;;;;;;7.30;2.83;;;17.90;83.20;;;;;;5051715;28;20093;-67
2023/07/16 03:50:48;;;;;;;5.40;2.47;;;17.90;83.10;;;;;;5050966;28;20029;-67
2023/07/16 03:53:14;;;;;;;7.82;2.70;;;17.80;83.00;;;;;;5050675;28;20037;-67
2023/07/16 03:55:39;;;;;;;8.13;3.03;;;17.80;82.90;;;;;;5049812;28;20024;-68
2023/07/16 03:58:05;;;;;;;6.35;3.00;;;17.80;82.80;;;;;;5039136;28;20052;-68
2023/07/16 04:00:31;;;;;;;6.43;3.20;;;17.80;82.70;;;;;;5049628;28;20064;-68
2023/07/16 04:02:57;;;;;;;8.68;3.50;;;17.90;82.50;;;;;;5032519;28;20048;-68
2023/07/16 04:05:22;;;;;;;5.75;2.72;;;17.90;82.10;;;;;;5049391;28;20052;-68
2023/07/16 04:07:48;;;;;;;8.45;3.20;;;17.90;81.70;;;;;;5052333;28;20036;-68
2023/07/16 04:10:14;;;;;;;5.32;2.83;;;17.90;81.40;;;;;;5049253;28;20029;-68
2023/07/16 04:12:39;;;;;;;7.32;3.08;;;17.90;81.20;;;;;;5049794;28;20384;-68
2023/07/16 04:15:09;;;;;;;6.18;2.90;;;17.80;81.10;;;;;;5049854;28;20044;-68
2023/07/16 04:17:34;;;;;;;6.03;2.95;;;17.80;81.10;;;;;;5055436;28;20044;-66
2023/07/16 04:20:00;;;;;;;5.15;2.67;;;17.90;81.20;;;;;;5049598;28;20060;-66
2023/07/16 04:22:25;;;;;;;8.40;3.15;;;17.90;81.50;;;;;;5049941;28;20029;-67
2023/07/16 04:24:51;;;;;;;5.63;2.70;;;17.90;81.90;;;;;;5049734;28;20484;-67
2023/07/16 04:27:16;;;;;;;7.35;3.17;;;17.90;82.40;;;;;;5049939;28;21702;-67
2023/07/16 04:29:42;;;;;;;8.25;3.25;;;17.90;82.70;;;;;;5056462;28;20052;-67
2023/07/16 04:32:07;;;;;;;5.93;2.55;;;17.90;83.10;;;;;;5051397;28;20035;-67
2023/07/16 04:34:33;;;;;;;5.75;2.50;;;17.90;83.30;;;;;;5060313;28;20032;-68
2023/07/16 04:36:59;;;;;;;5.65;2.70;;;18.00;83.50;;;;;;5049285;28;20025;-67
2023/07/16 04:39:24;;;;;;;4.13;2.67;;;18.00;83.60;;;;;;5049708;28;20024;-67
2023/07/16 04:41:50;;;;;;;5.65;2.58;;;18.00;83.70;;;;;;5047613;28;20035;-68
2023/07/16 04:44:15;;;;;;;5.95;2.95;;;18.00;83.60;;;;;;5053721;28;20032;-68
2023/07/16 04:46:41;;;;;;;6.70;2.90;;;18.00;83.30;;;;;;5051792;28;20079;-68
2023/07/16 04:49:07;;;;;;;7.72;3.80;;;18.00;83.00;;;;;;5054496;28;20028;-68
2023/07/16 04:51:32;;;;;;;6.93;3.47;;;18.00;82.70;;;;;;5055868;28;20052;-67
2023/07/16 04:53:58;;;;;;;6.95;3.80;;;18.00;82.20;;;;;;5059206;28;20037;-67
2023/07/16 04:56:23;;;;;;;7.72;3.70;;;18.00;81.40;;;;;;5053602;28;20661;-66
2023/07/16 04:58:49;;;;;;;6.18;3.33;;;18.00;81.00;;;;;;5065354;28;20380;-67
2023/07/16 05:01:15;;;;;;;5.95;3.60;;;18.10;80.30;;;;;;5059655;28;20032;-66
2023/07/16 05:03:40;;;;;;;7.80;3.97;;;18.10;79.50;;;;;;5053176;28;20029;-67
2023/07/16 05:06:06;;;;;;;6.88;3.40;;;18.20;78.70;;;;;;5053473;28;20442;-68
2023/07/16 05:08:31;;;;;;;7.43;3.72;;;18.20;78.20;;;;;;5055680;28;20031;-68
2023/07/16 05:10:58;;;;;;;6.47;3.38;;;18.20;77.30;;;;;;5052112;28;20029;-68
2023/07/16 05:13:24;;;;;;;7.18;3.55;;;18.20;76.90;;;;;;5054784;28;20043;-67
2023/07/16 05:15:50;;;;;;;6.57;3.38;;;18.20;76.80;;;;;;5051485;28;20025;-67
2023/07/16 05:18:16;;;;;;;6.65;3.17;;;18.20;76.90;;;;;;5054360;28;20064;-67
2023/07/16 05:20:41;;;;;;;11.07;3.97;;;18.80;76.30;;;;;;5052985;28;20029;-67
2023/07/16 05:23:07;;;;;;;6.00;3.10;;;19.50;73.90;;;;;;5054965;28;20111;-67
2023/07/16 05:25:32;;;;;;;8.65;3.28;;;20.20;71.70;;;;;;5056527;28;20029;-67
2023/07/16 05:27:58;;;;;;;6.65;3.53;;;20.70;69.10;;;;;;5058915;28;20036;-68
2023/07/16 05:30:23;;;;;;;5.55;3.42;;;20.90;67.20;;;;;;5052574;28;20033;-68
2023/07/16 05:32:49;;;;;;;9.90;4.20;;;21.20;65.80;;;;;;5051004;28;20025;-68
2023/07/16 05:35:15;;;;;;;6.13;3.60;;;21.30;64.80;;;;;;5047257;28;20033;-68
2023/07/16 05:37:40;;;;;;;6.90;3.40;;;21.50;64.30;;;;;;5044857;28;20029;-68
2023/07/16 05:40:08;;;;;;;6.70;3.30;;;21.80;63.40;;;;;;5045353;28;20070;-68
2023/07/16 05:42:34;;;;;;;6.40;3.70;;;22.10;62.80;;;;;;5047296;28;20029;-68
2023/07/16 05:44:59;;;;;;;6.35;3.70;;;22.20;61.60;;;;;;5048771;28;20021;-69
2023/07/16 05:47:25;;;;;;;6.85;3.53;;;22.50;61.30;;;;;;5045602;28;20025;-68
2023/07/16 05:49:51;;;;;;;7.90;3.78;;;22.60;60.50;;;;;;5065868;28;20111;-69
2023/07/16 05:52:16;;;;;;;8.27;4.60;;;22.60;60.40;;;;;;5073209;28;20143;-68
2023/07/16 05:54:44;;;;;;;9.05;4.20;;;22.40;59.60;;;;;;5061992;28;20445;-68
2023/07/16 05:57:10;;;;;;;11.75;4.13;;;21.60;60.70;;;;;;5057164;28;20392;-68
2023/07/16 05:59:37;;;;;;;7.50;3.45;;;21.60;61.90;;;;;;5060525;28;20040;-69
2023/07/16 06:02:03;;;;;;;6.25;3.20;;;21.70;62.00;;;;;;5033515;28;20036;-68
2023/07/16 06:04:29;;;;;;;6.82;3.20;;;22.40;61.30;;;;;;5059746;28;20071;-68
2023/07/16 06:06:56;;;;;;;7.25;3.53;;;22.70;60.10;;;;;;5068333;28;20036;-68
2023/07/16 06:09:21;;;;;;;7.38;4.10;;;23.20;59.70;;;;;;5031131;28;20463;-68
2023/07/16 06:11:47;;;;;;;6.72;3.90;;;23.30;58.60;;;;;;5038284;28;20025;-68
2023/07/16 06:14:13;;;;;;;7.70;3.78;;;23.20;58.30;;;;;;5041160;28;20080;-68
2023/07/16 06:16:41;;;;;;;6.35;3.60;;;23.20;58.30;;;;;;5046213;28;20527;-68
2023/07/16 06:19:07;;;;;;;7.35;4.10;;;23.30;58.60;;;;;;5031532;28;20510;-68
2023/07/16 06:21:33;;;;;;;6.43;3.95;;;23.30;58.30;;;;;;5038363;28;20025;-69
2023/07/16 06:23:58;;;;;;;8.38;4.22;;;23.20;58.60;;;;;;5031915;28;20044;-69
2023/07/16 06:26:24;;;;;;;8.18;4.13;;;23.00;58.50;;;;;;5044418;28;20024;-69
2023/07/16 06:28:50;;;;;;;7.53;3.60;;;22.80;59.20;;;;;;5045012;28;20037;-69
2023/07/16 06:31:18;;;;;;;7.55;3.80;;;22.60;59.60;;;;;;5045432;28;20034;-69
2023/07/16 06:33:46;;;;;;;7.18;3.28;;;22.60;60.00;;;;;;5044351;28;20044;-68
2023/07/16 06:36:15;;;;;;;8.88;3.80;;;22.60;60.20;;;;;;5042617;28;20391;-68
2023/07/16 06:38:40;;;;;;;10.75;4.35;;;22.40;60.30;;;;;;5037956;28;20033;-68
2023/07/16 06:41:06;;;;;;;7.05;3.55;;;22.10;60.40;;;;;;5045637;28;20400;-68
2023/07/16 06:43:32;;;;;;;7.47;3.60;;;21.80;61.10;;;;;;5051918;28;20025;-68
2023/07/16 06:45:57;;;;;;;7.47;4.13;;;21.70;61.60;;;;;;5056762;28;20059;-68
2023/07/16 06:48:23;;;;;;;7.72;4.35;;;21.60;61.30;;;;;;5051710;28;20021;-68
2023/07/16 06:50:50;;;;;;;5.78;3.50;;;21.50;61.60;;;;;;5052775;28;20472;-69
2023/07/16 06:53:15;;;;;;;9.75;4.60;;;21.40;62.00;;;;;;5051377;28;20036;-69
2023/07/16 06:55:41;;;;;;;9.05;4.10;;;21.30;61.70;;;;;;5062451;28;20025;-68
2023/07/16 06:58:10;;;;;;;7.10;3.83;;;21.30;62.10;;;;;;5071744;28;20498;-69
2023/07/16 07:00:36;;;;;;;9.13;4.70;;;21.50;62.40;;;;;;5061924;28;20044;-69
2023/07/16 07:03:02;;;;;;;6.30;3.63;;;21.50;61.50;;;;;;5052884;28;20025;-69
2023/07/16 07:05:27;;;;;;;6.55;3.95;;;21.50;61.80;;;;;;5060073;28;20356;-68
2023/07/16 07:07:53;;;;;;;8.00;4.07;;;21.60;61.60;;;;;;5072121;28;20021;-69
2023/07/16 07:10:18;;;;;;;7.18;3.58;;;21.70;61.70;;;;;;5064732;28;20032;-69
2023/07/16 07:12:44;;;;;;;6.13;3.17;;;21.90;61.60;;;;;;5050376;28;20066;-69
2023/07/16 07:15:10;;;;;;;9.45;4.63;;;21.90;61.50;;;;;;5056076;28;20025;-69
2023/07/16 07:17:35;;;;;;;7.00;4.00;;;21.90;60.60;;;;;;5061586;28;20107;-69
2023/07/16 07:20:02;;;;;;;8.80;4.05;;;21.80;60.80;;;;;;5054367;28;20111;-69
2023/07/16 07:22:28;;;;;;;7.25;3.67;;;21.90;61.00;;;;;;5057350;28;20047;-68
2023/07/16 07:24:54;;;;;;;9.70;4.60;;;21.90;61.20;;;;;;5046919;28;20029;-69
2023/07/16 07:27:19;;;;;;;7.75;4.22;;;22.00;60.90;;;;;;5049682;28;20021;-69
2023/07/16 07:29:46;;;;;;;9.23;4.32;;;21.90;60.90;;;;;;5042244;28;20424;-69
2023/07/16 07:32:12;;;;;;;7.22;4.03;;;21.90;60.70;;;;;;5042624;28;20496;-68
2023/07/16 07:34:38;;;;;;;8.25;4.20;;;21.90;60.70;;;;;;5039370;28;20056;-69
2023/07/16 07:37:05;;;;;;;8.52;4.35;;;21.90;60.40;;;;;;5046448;28;20036;-69
2023/07/16 07:39:30;;;;;;;8.82;4.72;;;21.90;60.60;;;;;;5039775;28;20028;-68
2023/07/16 07:41:56;;;;;;;8.88;4.40;;;22.00;60.70;;;;;;5045535;28;20405;-69
2023/07/16 07:44:21;;;;;;;8.70;4.25;;;22.00;60.30;;;;;;5042108;28;20143;-68
2023/07/16 07:46:47;;;;;;;7.05;4.22;;;21.90;60.50;;;;;;5045995;28;20253;-69
2023/07/16 07:49:12;;;;;;;9.32;5.10;;;21.80;60.50;;;;;;5040949;28;20327;-68
2023/07/16 07:51:38;;;;;;;9.32;4.63;;;21.80;60.30;;;;;;5042570;28;20022;-69
2023/07/16 07:54:03;;;;;;;8.20;4.45;;;21.80;60.50;;;;;;5042952;28;20047;-69
2023/07/16 07:56:30;;;;;;;8.43;4.63;;;21.90;60.70;;;;;;5041238;28;20021;-69
2023/07/16 07:58:55;;;;;;;6.85;4.03;;;21.80;60.40;;;;;;5041188;28;20032;-69
2023/07/16 08:01:21;;;;;;;10.45;4.70;;;21.90;60.70;;;;;;5047786;28;20025;-69
2023/07/16 08:03:47;;;;;;;6.15;4.00;;;22.00;60.20;;;;;;5031168;28;20017;-69
2023/07/16 08:06:12;;;;;;;10.45;5.10;;;22.00;60.50;;;;;;5051050;28;20021;-68
2023/07/16 08:08:38;;;;;;;8.70;4.32;;;22.10;59.80;;;;;;5041757;28;20025;-69
2023/07/16 08:11:03;;;;;;;6.95;4.07;;;22.20;60.20;;;;;;5043618;28;20036;-68
2023/07/16 08:13:29;;;;;;;8.50;4.03;;;22.20;60.00;;;;;;5053613;28;20032;-68
2023/07/16 08:15:55;;;;;;;7.75;4.70;;;22.10;59.70;;;;;;5046877;28;20033;-69
2023/07/16 08:18:20;;;;;;;8.93;4.28;;;22.20;59.90;;;;;;5048507;28;20476;-69
2023/07/16 08:20:47;;;;;;;9.38;4.80;;;22.20;59.70;;;;;;5031612;28;20033;-69
2023/07/16 08:23:13;;;;;;;11.05;5.38;;;22.30;59.30;;;;;;5047159;28;20025;-69
2023/07/16 08:25:38;;;;;;;9.95;5.13;;;22.30;59.40;;;;;;5040643;28;20071;-69
2023/07/16 08:28:04;;;;;;;10.88;5.00;;;22.30;59.10;;;;;;5048876;28;20052;-69
2023/07/16 08:30:31;;;;;;;8.25;4.80;;;22.20;59.30;;;;;;5055565;28;20108;-68
2023/07/16 08:32:57;;;;;;;9.20;5.13;;;22.10;59.40;;;;;;5050675;28;20032;-68
2023/07/16 08:35:22;;;;;;;8.98;4.97;;;22.10;59.40;;;;;;5052316;28;20360;-68
2023/07/16 08:37:48;;;;;;;6.60;4.22;;;22.00;59.80;;;;;;5051407;28;20067;-68
2023/07/16 08:40:14;;;;;;;7.45;3.92;;;21.80;59.90;;;;;;5049752;28;20103;-69
2023/07/16 08:42:40;;;;;;;8.63;4.70;;;21.90;60.30;;;;;;5050717;28;20021;-68
2023/07/16 08:45:10;;;;;;;8.30;5.20;;;22.00;60.20;;;;;;5050958;28;20081;-68
2023/07/16 08:47:36;;;;;;;9.63;4.82;;;22.10;60.10;;;;;;5053077;28;20017;-69
2023/07/16 08:50:03;;;;;;;7.85;3.90;;;22.20;60.30;;;;;;5034281;28;20471;-68
2023/07/16 08:52:29;;;;;;;7.97;3.97;;;22.40;60.00;;;;;;5047779;28;20029;-68
2023/07/16 08:54:55;;;;;;;7.20;4.40;;;22.60;60.00;;;;;;5030900;28;20267;-67
2023/07/16 08:57:22;;;;;;;9.43;5.18;;;22.90;59.90;;;;;;5046957;28;20044;-68
2023/07/16 08:59:48;;;;;;;6.80;3.63;;;23.10;58.60;;;;;;5050104;28;20563;-68
2023/07/16 09:02:17;;;;;;;6.75;3.60;;;23.20;59.10;;;;;;5032255;28;20047;-68
2023/07/16 09:04:43;;;;;;;8.88;4.68;;;23.30;59.00;;;;;;5046775;28;20029;-68
2023/07/16 09:07:08;;;;;;;8.48;4.47;;;23.40;58.20;;;;;;5049408;28;20087;-67
2023/07/16 09:09:34;;;;;;;7.15;4.38;;;23.30;57.50;;;;;;5048087;28;20021;-68
2023/07/16 09:12:00;;;;;;;6.18;3.50;;;23.30;57.50;;;;;;5048111;28;20118;-68
2023/07/16 09:14:26;;;;;;;9.45;4.28;;;23.20;57.90;;;;;;5047371;28;20036;-67
2023/07/16 09:16:52;;;;;;;9.20;5.05;;;23.20;58.10;;;;;;5049515;28;20029;-68
2023/07/16 09:19:19;;;;;;;7.60;4.20;;;23.20;58.00;;;;;;5051218;28;20503;-67
2023/07/16 09:21:52;;;;;;;8.40;4.60;;;23.20;57.80;;;;;;5035929;28;20025;-67
2023/07/16 09:24:18;;;;;;;5.50;3.60;;;23.20;57.90;;;;;;5051857;28;20046;-68
2023/07/16 09:26:55;;;;;;;6.60;4.13;;;23.30;58.10;;;;;;5051028;28;20157;-68
2023/07/16 09:29:21;;;;;;;8.57;4.53;;;23.40;58.00;;;;;;5050263;28;20033;-68
2023/07/16 09:32:00;;;;;;;8.95;3.90;;;23.50;57.60;;;;;;5047055;28;20098;-68
2023/07/16 09:34:29;;;;;;;6.45;3.80;;;23.40;58.10;;;;;;5032029;28;20395;-68
2023/07/16 09:36:56;;;;;;;6.82;3.97;;;23.40;57.70;;;;;;5048509;28;20048;-69
2023/07/16 09:39:22;;;;;;;6.90;3.70;;;23.40;57.50;;;;;;5054685;28;20491;-68
2023/07/16 09:41:49;;;;;;;6.15;3.35;;;23.30;57.50;;;;;;5038560;28;20032;-68
2023/07/16 09:44:16;;;;;;;10.20;4.35;;;23.30;57.80;;;;;;5054402;28;20155;-68
2023/07/16 09:46:42;;;;;;;6.60;4.03;;;23.10;57.70;;;;;;5052615;28;20720;-68
2023/07/16 09:49:09;;;;;;;5.57;3.80;;;22.90;58.40;;;;;;5051377;28;20104;-68
2023/07/16 09:51:39;;;;;;;6.07;3.70;;;22.80;58.70;;;;;;5060192;28;20434;-68
2023/07/16 09:54:05;;;;;;;6.85;4.10;;;22.70;59.00;;;;;;5033114;28;20048;-68
2023/07/16 09:56:41;;;;;;;8.18;4.15;;;22.70;59.10;;;;;;5052105;28;20036;-68
2023/07/16 09:59:12;;;;;;;7.68;4.45;;;22.70;59.20;;;;;;5054469;28;20033;-67
2023/07/16 10:01:39;;;;;;;8.63;3.70;;;22.70;59.00;;;;;;5055042;28;20028;-68
2023/07/16 10:04:12;;;;;;;6.15;3.33;;;22.60;59.20;;;;;;5056194;28;20079;-68
2023/07/16 10:07:08;;;;;;;7.22;3.63;;;22.60;59.00;;;;;;5055160;28;20056;-68
2023/07/16 10:09:41;;;;;;;10.50;4.55;;;22.70;59.20;;;;;;5034057;28;20514;-68
2023/07/16 10:12:10;;;;;;;7.40;3.95;;;22.90;58.60;;;;;;5035651;28;20492;-68
2023/07/16 10:14:56;;;;;;;8.70;4.25;;;23.00;58.70;;;;;;5055925;28;20099;-70
2023/07/16 10:17:23;;;;;;;7.15;4.03;;;23.10;58.30;;;;;;5053325;28;20525;-68
2023/07/16 10:19:59;;;;;;;6.60;3.63;;;23.20;58.10;;;;;;5057174;28;21323;-69
2023/07/16 10:22:43;;;;;;;6.40;3.65;;;23.40;58.20;;;;;;5049544;28;20025;-69
2023/07/16 10:25:09;;;;;;;7.00;4.47;;;23.50;57.60;;;;;;5050326;28;20103;-68
2023/07/16 10:27:35;;;;;;;6.65;3.65;;;23.50;57.10;;;;;;5033943;28;20091;-69
2023/07/16 10:30:02;;;;;;;7.35;3.97;;;23.40;57.40;;;;;;5053619;28;20025;-68
2023/07/16 10:32:29;;;;;;;6.57;3.63;;;23.50;57.80;;;;;;5054134;28;20028;-69
2023/07/16 10:34:55;;;;;;;5.53;3.67;;;23.50;57.80;;;;;;5054452;28;20059;-69
2023/07/16 10:37:21;;;;;;;7.05;4.20;;;23.50;57.70;;;;;;5052479;28;20467;-68
2023/07/16 10:39:54;;;;;;;8.35;4.07;;;23.50;57.60;;;;;;5050547;28;20025;-69
2023/07/16 10:42:22;;;;;;;8.07;4.53;;;23.50;57.30;;;;;;5048702;28;20024;-69
2023/07/16 10:44:57;;;;;;;7.63;4.20;;;23.30;57.10;;;;;;5049236;28;20027;-68
2023/07/16 10:47:24;;;;;;;6.15;3.45;;;23.20;56.70;;;;;;5051782;28;20088;-69
2023/07/16 10:49:54;;;;;;;4.53;3.30;;;23.20;57.10;;;;;;5056452;28;20029;-69
2023/07/16 10:52:21;;;;;;;5.28;3.25;;;23.30;57.40;;;;;;5057513;28;20020;-69
2023/07/16 10:54:49;;;;;;;8.15;3.80;;;23.30;57.40;;;;;;5052341;28;20052;-68
2023/07/16 10:57:16;;;;;;;7.57;4.10;;;23.40;57.40;;;;;;5056211;28;20029;-68
2023/07/16 10:59:44;;;;;;;8.45;3.80;;;23.40;57.20;;;;;;5050148;28;20075;-69
2023/07/16 11:02:12;;;;;;;5.47;3.67;;;23.50;57.30;;;;;;5053016;28;20067;-68
2023/07/16 11:04:38;;;;;;;6.97;3.50;;;23.50;57.00;;;;;;5045726;28;20104;-68
2023/07/16 11:07:05;;;;;;;6.95;3.28;;;23.50;57.00;;;;;;5050016;28;20029;-68
2023/07/16 11:09:32;;;;;;;8.15;4.05;;;23.60;57.30;;;;;;5049954;28;20419;-69
2023/07/16 11:12:06;;;;;;;7.45;4.07;;;23.60;57.10;;;;;;5052630;28;20025;-68
2023/07/16 11:14:32;;;;;;;6.90;4.15;;;23.30;57.10;;;;;;5051233;28;20075;-68
2023/07/16 11:17:06;;;;;;;7.57;3.92;;;23.10;57.40;;;;;;5058935;28;20021;-68
2023/07/16 11:19:31;;;;;;;6.60;3.45;;;23.00;57.70;;;;;;5048500;28;20079;-68
2023/07/16 11:21:57;;;;;;;6.65;3.30;;;22.90;58.00;;;;;;5051137;28;20037;-68
2023/07/16 11:24:24;;;;;;;6.93;3.50;;;22.90;58.30;;;;;;5050757;28;20561;-69
2023/07/16 11:26:57;;;;;;;6.07;3.42;;;22.90;58.50;;;;;;5050194;28;20039;-68
2023/07/16 11:29:23;;;;;;;6.03;3.30;;;23.00;58.50;;;;;;5054109;28;20480;-68
2023/07/16 11:31:53;;;;;;;6.45;3.30;;;23.10;58.30;;;;;;5052364;28;20067;-68
2023/07/16 11:34:22;;;;;;;6.13;3.30;;;23.10;58.30;;;;;;5053821;28;20025;-68
2023/07/16 11:36:48;;;;;;;5.53;2.90;;;23.20;58.50;;;;;;5050415;28;20082;-68
2023/07/16 11:39:14;;;;;;;5.88;3.22;;;23.20;58.60;;;;;;5054397;28;20055;-68
2023/07/16 11:41:39;;;;;;;5.65;3.67;;;23.40;58.70;;;;;;5048719;28;20060;-68
2023/07/16 11:44:07;;;;;;;6.68;3.42;;;23.60;58.40;;;;;;5036444;28;20059;-68
2023/07/16 11:46:34;;;;;;;8.57;4.20;;;23.70;57.90;;;;;;5048531;28;20013;-68
2023/07/16 11:49:00;;;;;;;6.72;3.40;;;23.60;57.50;;;;;;5054337;28;20029;-68
2023/07/16 11:51:26;;;;;;;6.20;3.80;;;23.50;57.70;;;;;;5049173;28;20049;-68
2023/07/16 11:53:52;;;;;;;8.88;4.05;;;23.30;57.60;;;;;;5051321;28;20033;-68
2023/07/16 11:56:17;;;;;;;6.18;3.10;;;23.20;58.00;;;;;;5052336;28;20406;-68
2023/07/16 11:58:43;;;;;;;4.88;3.28;;;23.20;58.60;;;;;;5052916;28;20025;-69
2023/07/16 12:01:09;;;;;;;7.30;3.25;;;23.10;59.20;;;;;;5052016;28;20036;-68
2023/07/16 12:03:35;;;;;;;5.53;3.25;;;23.00;59.40;;;;;;5050330;28;20071;-69
2023/07/16 12:06:00;;;;;;;6.88;3.78;;;23.00;59.60;;;;;;5053262;28;20033;-68
2023/07/16 12:08:26;;;;;;;7.05;3.70;;;23.10;59.70;;;;;;5051275;28;20383;-69
2023/07/16 12:10:52;;;;;;;5.68;3.70;;;23.30;59.50;;;;;;5052728;28;20067;-68
2023/07/16 12:13:17;;;;;;;7.43;3.50;;;23.60;59.20;;;;;;5032694;28;20029;-68
2023/07/16 12:15:43;;;;;;;6.15;3.45;;;23.80;58.80;;;;;;5053179;28;20029;-68
2023/07/16 12:18:08;;;;;;;7.18;3.20;;;24.00;58.40;;;;;;5050986;28;20033;-69
2023/07/16 12:20:36;;;;;;;5.72;3.10;;;24.20;58.00;;;;;;5043859;28;20029;-69
2023/07/16 12:23:02;;;;;;;5.28;3.13;;;24.20;57.90;;;;;;5046987;28;20641;-69
2023/07/16 12:25:28;;;;;;;6.10;3.70;;;24.20;57.70;;;;;;5052475;28;20009;-69
2023/07/16 12:27:57;;;;;;;5.82;2.88;;;24.20;57.30;;;;;;5051490;28;20669;-68
2023/07/16 12:30:23;;;;;;;6.32;3.17;;;24.00;57.70;;;;;;5054355;28;20029;-69
2023/07/16 12:32:49;;;;;;;7.63;3.40;;;24.00;57.70;;;;;;5051590;28;20086;-69
2023/07/16 12:35:15;;;;;;;7.75;3.60;;;24.00;57.50;;;;;;5049909;28;20024;-68
2023/07/16 12:37:40;;;;;;;5.55;3.55;;;23.90;57.60;;;;;;5051603;28;20454;-69
2023/07/16 12:40:06;;;;;;;13.32;9.77;;;23.90;57.50;;;;;;5051474;28;20076;-68
2023/07/16 12:42:32;;;;;;;18.20;12.90;;;23.90;57.60;;;;;;5044486;28;20012;-69